Time;durP1;ratioP1;P1;durP2;ratioP2;P2;SDS_P1;SDS_P2;PMS_P1;PMS_P2;Temp;Humidity;BMP_temperature;BMP_pressure;BME280_temperature;BME280_humidity;BME280_pressure;Samples;Min_cycle;Max_cycle;Signal;HPM_P1;HPM_P2
2022/06/20 00:00:23;;;;;;;11.23;3.20;;;21.40;96.00;;;22.38;87.21;97413.13;5067032;28;20472;-78
2022/06/20 00:02:58;;;;;;;6.47;2.53;;;21.30;96.10;;;22.38;86.86;97407.81;5066813;28;20935;-78
2022/06/20 00:05:34;;;;;;;11.90;2.80;;;21.30;96.10;;;22.36;87.44;97401.94;5063693;28;20574;-77
2022/06/20 00:08:05;;;;;;;6.43;3.00;;;21.30;96.10;;;22.36;87.08;97405.41;5065357;28;20456;-78
2022/06/20 00:10:36;;;;;;;11.60;3.80;;;21.30;96.10;;;22.33;87.81;97405.16;5064810;28;21287;-79
2022/06/20 00:13:07;;;;;;;9.30;2.70;;;21.20;96.10;;;22.31;87.31;97394.00;5063233;28;20456;-78
2022/06/20 00:15:37;;;;;;;13.27;2.90;;;21.30;96.30;;;22.30;87.42;97387.06;5060004;28;20452;-78
2022/06/20 00:18:10;;;;;;;14.23;3.00;;;21.20;96.30;;;22.26;88.08;97386.84;5067840;28;20517;-78
2022/06/20 00:20:41;;;;;;;13.93;3.10;;;21.10;96.20;;;22.28;87.77;97389.22;5064824;28;20487;-78
2022/06/20 00:23:10;;;;;;;10.87;2.70;;;21.20;96.30;;;22.27;87.92;97398.28;5064527;28;20475;-78
2022/06/20 00:25:41;;;;;;;7.07;2.57;;;21.20;96.30;;;22.24;87.74;97409.50;5066278;28;20493;-78
2022/06/20 00:28:13;;;;;;;6.40;2.10;;;21.20;96.20;;;22.24;88.54;97414.84;5064046;28;20963;-78
2022/06/20 00:30:49;;;;;;;9.47;3.40;;;21.10;96.50;;;22.22;88.23;97432.94;5060600;28;20553;-79
2022/06/20 00:33:25;;;;;;;13.23;3.07;;;21.20;96.20;;;22.14;88.21;97442.34;5060791;28;20460;-78
2022/06/20 00:35:55;;;;;;;7.50;3.00;;;21.30;96.00;;;22.05;89.22;97457.28;5063639;28;20480;-78
2022/06/20 00:38:26;;;;;;;5.73;2.57;;;21.20;96.10;;;21.98;90.16;97488.75;5063191;28;20478;-77
2022/06/20 00:40:59;;;;;;;13.70;4.90;;;21.20;96.20;;;21.94;91.16;97532.97;5063068;28;21079;-78
2022/06/20 00:43:34;;;;;;;8.13;2.77;;;21.20;96.30;;;21.84;92.10;97578.25;5063368;28;20974;-78
2022/06/20 00:46:12;;;;;;;7.33;2.80;;;21.10;96.50;;;21.77;93.25;97601.69;5063099;28;20452;-78
2022/06/20 00:48:49;;;;;;;10.00;2.60;;;21.00;96.50;;;21.65;93.62;97591.34;5064548;28;20452;-78
2022/06/20 00:51:33;;;;;;;9.10;2.63;;;21.00;96.60;;;21.68;93.84;97571.38;5062806;28;20464;-78
2022/06/20 00:54:15;;;;;;;12.70;3.03;;;20.90;96.70;;;21.68;93.90;97590.81;5064456;28;21003;-78
2022/06/20 00:56:53;;;;;;;8.50;2.70;;;20.80;96.90;;;21.56;94.43;97585.75;5060372;28;20484;-78
2022/06/20 00:59:32;;;;;;;13.87;3.20;;;20.70;96.90;;;21.53;94.42;97575.66;5063013;28;20480;-77
2022/06/20 01:02:06;;;;;;;14.73;3.83;;;20.70;96.80;;;21.50;93.79;97602.00;5064764;28;20460;-77
2022/06/20 01:04:44;;;;;;;6.53;2.80;;;20.60;96.70;;;21.40;93.69;97621.44;5062088;28;20930;-78
2022/06/20 01:07:25;;;;;;;8.67;2.50;;;20.50;96.70;;;21.43;93.54;97644.84;5061064;28;20470;-77
2022/06/20 01:09:59;;;;;;;9.37;2.53;;;20.60;96.70;;;21.47;93.06;97669.06;5062446;28;20451;-78
2022/06/20 01:12:35;;;;;;;14.10;3.10;;;20.60;96.70;;;21.37;93.66;97672.53;5061782;28;20510;-78
2022/06/20 01:15:20;;;;;;;7.60;3.10;;;20.50;96.80;;;21.33;93.07;97684.75;5062334;28;20460;-78
2022/06/20 01:17:53;;;;;;;7.77;2.50;;;20.50;96.50;;;21.32;93.22;97677.81;5067495;28;20467;-77
2022/06/20 01:20:29;;;;;;;13.53;3.33;;;20.50;96.50;;;21.32;92.55;97669.84;5064455;28;20854;-78
2022/06/20 01:23:10;;;;;;;4.93;2.80;;;20.50;96.50;;;21.17;92.94;97661.06;5061687;28;20448;-77
2022/06/20 01:26:20;;;;;;;9.90;2.80;;;20.40;96.50;;;21.09;94.30;97625.13;5061285;28;20823;-77
2022/06/20 01:28:58;;;;;;;5.37;1.87;;;20.30;96.80;;;21.13;94.46;97606.78;5063971;28;20472;-77
2022/06/20 01:31:35;;;;;;;12.53;2.33;;;20.30;97.00;;;21.13;94.75;97596.16;5062911;28;20448;-78
2022/06/20 01:34:05;;;;;;;8.80;2.37;;;20.10;97.10;;;21.22;94.24;97583.91;5059373;28;20458;-78
2022/06/20 01:39:25;;;;;;;14.97;2.60;;;20.30;97.10;;;21.26;94.85;97574.34;5052930;28;20457;-77
2022/06/20 01:44:47;;;;;;;18.30;2.60;;;20.40;97.10;;;21.35;94.24;97530.97;5065199;28;21639;-77
2022/06/20 01:47:16;;;;;;;5.77;2.20;;;20.40;97.10;;;21.39;94.39;97523.25;5063901;28;20456;-77
2022/06/20 01:49:51;;;;;;;11.70;2.63;;;20.40;97.30;;;21.43;94.40;97549.06;5062052;28;20895;-78
2022/06/20 01:52:28;;;;;;;5.83;2.30;;;20.40;97.20;;;21.43;94.53;97538.41;5063775;28;20472;-77
2022/06/20 01:55:06;;;;;;;8.40;2.60;;;20.50;97.20;;;21.43;94.47;97524.31;5062960;28;21010;-78
2022/06/20 01:57:40;;;;;;;6.00;2.23;;;20.50;97.10;;;21.46;94.79;97521.91;5063117;28;20465;-78
2022/06/20 02:00:16;;;;;;;6.43;2.00;;;20.50;97.30;;;21.49;94.71;97521.38;5062302;28;20513;-77
2022/06/20 02:02:51;;;;;;;8.20;2.40;;;20.50;97.30;;;21.49;94.70;97526.69;5063134;28;20455;-77
2022/06/20 02:05:31;;;;;;;14.53;2.70;;;20.50;97.40;;;21.54;94.84;97520.56;5062252;28;20962;-78
2022/06/20 02:08:06;;;;;;;7.60;2.53;;;20.50;97.40;;;21.56;94.45;97515.75;5059625;28;20462;-78
2022/06/20 02:10:44;;;;;;;13.20;2.40;;;20.50;97.40;;;21.57;94.52;97502.19;5061990;28;20455;-77
2022/06/20 02:13:16;;;;;;;7.53;2.80;;;20.50;97.40;;;21.56;94.98;97499.78;5059975;28;20456;-78
2022/06/20 02:15:51;;;;;;;4.20;2.23;;;20.50;97.60;;;21.57;94.94;97496.06;5057771;28;20522;-78
2022/06/20 02:18:22;;;;;;;6.60;3.00;;;20.60;97.40;;;21.54;94.63;97486.78;5062106;28;20823;-77
2022/06/20 02:20:56;;;;;;;9.30;2.53;;;20.50;97.30;;;21.50;94.89;97491.03;5061451;28;20857;-77
2022/06/20 02:23:31;;;;;;;4.07;2.67;;;20.50;97.40;;;21.51;95.13;97489.19;5060463;28;20457;-78
2022/06/20 02:26:06;;;;;;;8.83;2.67;;;20.40;97.50;;;21.50;94.66;97488.38;5058579;28;20567;-77
2022/06/20 02:28:44;;;;;;;3.90;2.00;;;20.50;97.50;;;21.53;95.34;97490.50;5060289;28;20466;-77
2022/06/20 02:31:16;;;;;;;4.03;2.00;;;20.40;97.60;;;21.52;95.60;97478.25;5059649;28;20467;-78
2022/06/20 02:33:48;;;;;;;6.67;2.20;;;20.30;97.70;;;21.50;95.31;97480.38;5060437;28;20478;-79
2022/06/20 02:36:18;;;;;;;7.70;3.30;;;20.40;97.80;;;21.50;95.99;97474.25;5058676;28;20837;-78
2022/06/20 02:38:47;;;;;;;11.97;2.70;;;20.40;97.90;;;21.48;95.39;97474.56;5059091;28;20535;-77
2022/06/20 02:41:23;;;;;;;5.03;2.50;;;20.40;97.60;;;21.44;96.05;97470.84;5059922;28;20549;-77
2022/06/20 02:44:00;;;;;;;5.77;2.40;;;20.40;97.70;;;21.40;96.45;97461.78;5062919;28;20464;-77
2022/06/20 02:46:32;;;;;;;8.13;2.13;;;20.40;97.80;;;21.37;97.03;97465.00;5064542;28;20483;-77
2022/06/20 02:49:09;;;;;;;9.23;2.50;;;20.40;97.90;;;21.34;97.62;97446.94;5064973;28;20456;-78
2022/06/20 02:51:47;;;;;;;6.17;2.40;;;20.40;97.90;;;21.31;98.08;97449.31;5065567;28;20464;-77
2022/06/20 02:54:21;;;;;;;9.13;2.77;;;20.40;97.90;;;21.31;98.28;97441.34;5064509;28;20529;-77
2022/06/20 02:56:58;;;;;;;6.80;3.13;;;20.30;98.10;;;21.29;98.93;97440.81;5065724;28;20452;-77
2022/06/20 02:59:35;;;;;;;8.23;2.60;;;20.30;98.10;;;21.28;98.28;97447.97;5066928;28;20473;-76
2022/06/20 03:02:11;;;;;;;7.20;2.40;;;20.30;98.20;;;21.21;99.53;97454.66;5065605;28;21021;-77
2022/06/20 03:04:45;;;;;;;11.73;2.80;;;20.30;98.00;;;21.13;100.00;97461.34;5063578;28;20471;-81
2022/06/20 03:07:20;;;;;;;7.20;4.30;;;20.30;98.00;;;21.14;100.00;97451.50;5064607;28;20467;-77
2022/06/20 03:10:02;;;;;;;7.33;2.87;;;20.30;98.30;;;21.12;100.00;97446.44;5066224;28;20522;-76
2022/06/20 03:12:33;;;;;;;7.60;2.33;;;20.20;98.30;;;21.12;100.00;97446.44;5064450;28;20495;-77
2022/06/20 03:15:08;;;;;;;5.30;2.40;;;20.20;98.50;;;21.13;100.00;97449.88;5062601;28;20452;-76
2022/06/20 03:17:42;;;;;;;45.77;25.10;;;20.10;98.40;;;21.12;100.00;97435.78;5069586;28;20456;-89
2022/06/20 03:20:16;;;;;;;8.67;2.93;;;20.10;98.60;;;21.13;100.00;97436.59;5064008;28;20552;-77
2022/06/20 03:22:58;;;;;;;5.90;2.27;;;20.10;98.60;;;21.13;100.00;97441.91;5064513;28;20462;-77
2022/06/20 03:25:29;;;;;;;11.60;2.57;;;20.10;98.50;;;21.12;100.00;97450.94;5061760;28;20464;-77
2022/06/20 03:28:00;;;;;;;5.47;1.83;;;20.10;98.80;;;21.12;100.00;97457.06;5061790;28;20503;-77
2022/06/20 03:30:50;;;;;;;9.87;5.97;;;20.00;98.70;;;21.08;100.00;97455.97;5064386;28;20932;-78
2022/06/20 03:33:22;;;;;;;9.40;3.00;;;20.00;98.60;;;21.05;100.00;97472.47;5063710;28;20514;-77
2022/06/20 03:35:59;;;;;;;5.03;2.13;;;20.00;98.80;;;21.06;100.00;97492.69;5063550;28;20554;-77
2022/06/20 03:38:30;;;;;;;2.60;2.10;;;20.00;98.70;;;21.04;100.00;97508.09;5065501;28;20444;-77
2022/06/20 03:41:01;;;;;;;4.87;2.13;;;20.00;98.60;;;21.05;100.00;97512.34;5064364;28;20496;-77
2022/06/20 03:43:33;;;;;;;12.70;3.23;;;20.00;98.70;;;21.05;100.00;97517.69;5069095;28;20444;-77
2022/06/20 03:46:15;;;;;;;3.20;2.20;;;20.00;98.70;;;21.03;100.00;97533.88;5064741;28;21029;-77
2022/06/20 03:49:02;;;;;;;4.67;2.30;;;20.00;98.70;;;20.94;100.00;97615.25;5063936;28;20536;-77
2022/06/20 03:51:41;;;;;;;6.23;2.70;;;19.90;98.70;;;20.82;100.00;97542.94;5065602;28;20716;-77
2022/06/20 03:54:22;;;;;;;8.13;2.43;;;20.10;98.80;;;20.77;100.00;97534.16;5060405;28;20464;-76
2022/06/20 03:57:00;;;;;;;16.67;6.40;;;19.80;99.00;;;20.82;100.00;97566.06;5061862;28;20452;-77
2022/06/20 03:59:39;;;;;;;4.97;2.20;;;19.90;99.10;;;20.84;100.00;97571.91;5060561;28;20536;-76
2022/06/20 04:02:17;;;;;;;5.40;2.13;;;19.90;99.00;;;20.80;100.00;97553.03;5061687;28;20645;-77
2022/06/20 04:04:57;;;;;;;5.70;2.50;;;20.00;99.00;;;20.84;100.00;97561.25;5059854;28;21243;-77
2022/06/20 04:07:33;;;;;;;6.50;2.90;;;19.90;99.20;;;20.86;100.00;97557.28;5062723;28;20464;-77
2022/06/20 04:13:08;;;;;;;12.20;2.60;;;19.90;99.40;;;20.86;100.00;97559.94;5059136;28;20473;-76
2022/06/20 04:15:49;;;;;;;10.20;2.37;;;20.00;99.10;;;20.89;100.00;97572.72;5063635;28;20456;-77
2022/06/20 04:18:30;;;;;;;6.27;1.90;;;19.90;99.70;;;20.91;100.00;97580.41;5064695;28;20497;-76
2022/06/20 04:21:12;;;;;;;8.70;3.20;;;19.90;99.30;;;20.94;100.00;97566.59;5064463;28;20500;-77
2022/06/20 04:23:53;;;;;;;5.73;2.67;;;20.00;99.30;;;20.97;100.00;97560.75;5066880;28;20206;-76
2022/06/20 04:26:30;;;;;;;11.30;2.40;;;20.00;99.30;;;20.96;100.00;97597.16;5066347;28;20523;-77
2022/06/20 04:29:11;;;;;;;5.60;2.00;;;20.10;99.20;;;20.98;100.00;97610.19;5067011;28;20950;-76
2022/06/20 04:31:51;;;;;;;6.67;2.50;;;20.00;99.30;;;20.98;100.00;97634.13;5066609;28;20510;-76
2022/06/20 04:34:27;;;;;;;7.27;2.30;;;20.00;99.30;;;20.98;100.00;97634.13;5067434;28;20529;-77
2022/06/20 04:37:10;;;;;;;12.97;2.80;;;19.90;99.30;;;20.99;100.00;97633.06;5065583;28;21280;-76
2022/06/20 04:40:04;;;;;;;6.57;2.10;;;20.00;99.20;;;20.86;100.00;97663.59;5065126;28;20440;-76
2022/06/20 04:42:44;;;;;;;4.53;2.20;;;19.90;99.50;;;20.76;100.00;97654.81;5062736;28;20551;-76
2022/06/20 04:45:20;;;;;;;5.70;2.20;;;19.80;99.90;;;20.75;100.00;97586.78;5065217;28;20459;-77
2022/06/20 04:47:56;;;;;;;8.30;2.40;;;19.90;99.90;;;20.76;100.00;97578.53;5067065;28;20436;-76
2022/06/20 04:50:29;;;;;;;3.23;1.97;;;19.90;99.90;;;20.80;100.00;97624.78;5065179;28;20998;-77
2022/06/20 04:53:08;;;;;;;8.20;2.33;;;19.90;99.90;;;20.79;100.00;97623.19;5060646;28;20499;-76
2022/06/20 04:55:45;;;;;;;8.70;2.50;;;19.90;99.90;;;20.80;100.00;97610.69;5062523;28;20483;-77
2022/06/20 04:58:26;;;;;;;4.53;2.20;;;19.90;99.90;;;20.79;100.00;97623.19;5064568;28;20827;-76
2022/06/20 05:00:56;;;;;;;4.23;2.53;;;19.90;99.90;;;20.78;100.00;97605.66;5063974;28;20440;-77
2022/06/20 05:03:37;;;;;;;7.03;2.00;;;19.90;99.90;;;20.79;100.00;97619.75;5065753;28;20500;-76
2022/06/20 05:06:15;;;;;;;4.37;2.40;;;19.90;99.90;;;20.78;100.00;97621.59;5066083;28;20880;-76
2022/06/20 05:08:52;;;;;;;5.20;2.20;;;19.90;99.90;;;20.81;100.00;97614.97;5063751;28;20543;-76
2022/06/20 05:11:31;;;;;;;7.17;2.77;;;19.90;99.90;;;20.77;100.00;97622.66;5064159;28;20455;-77
2022/06/20 05:14:19;;;;;;;11.07;2.60;;;19.90;99.90;;;20.71;100.00;97642.31;5062950;28;20539;-76
2022/06/20 05:16:57;;;;;;;6.83;2.60;;;19.90;99.90;;;20.74;100.00;97663.06;5065849;28;20488;-76
2022/06/20 05:19:33;;;;;;;7.17;3.27;;;19.80;99.90;;;20.74;100.00;97672.88;5064081;28;20794;-77
2022/06/20 05:22:12;;;;;;;7.13;2.87;;;19.80;99.90;;;20.72;100.00;97691.75;5063015;28;20480;-77
2022/06/20 05:24:46;;;;;;;3.70;2.27;;;19.80;99.90;;;20.70;100.00;97701.84;5065349;28;20510;-77
2022/06/20 05:27:23;;;;;;;15.33;2.67;;;19.90;99.90;;;20.56;100.00;97696.19;5065729;28;20506;-76
2022/06/20 05:30:00;;;;;;;4.70;2.53;;;19.60;99.90;;;20.58;100.00;97691.41;5065492;28;20487;-76
2022/06/20 05:32:41;;;;;;;4.67;2.57;;;19.70;99.90;;;20.61;100.00;97641.50;5065747;28;20437;-76
2022/06/20 05:35:22;;;;;;;9.70;2.63;;;19.70;99.90;;;20.56;100.00;97602.41;5065887;28;20503;-77
2022/06/20 05:37:59;;;;;;;9.17;2.80;;;19.80;99.90;;;20.49;100.00;97629.22;5064050;28;20549;-77
2022/06/20 05:40:37;;;;;;;8.80;2.63;;;19.70;99.90;;;20.47;100.00;97684.50;5063657;28;21034;-77
2022/06/20 05:43:11;;;;;;;7.93;2.50;;;19.70;99.90;;;20.43;100.00;97683.41;5065174;28;20487;-77
2022/06/20 05:45:41;;;;;;;7.93;2.57;;;19.70;99.90;;;20.41;100.00;97682.84;5064895;28;20547;-77
2022/06/20 05:48:14;;;;;;;6.07;2.50;;;19.60;99.90;;;20.36;100.00;97655.47;5064511;28;20457;-77
2022/06/20 05:50:57;;;;;;;4.67;2.87;;;19.60;99.90;;;20.31;100.00;97608.44;5065004;28;20510;-76
2022/06/20 05:53:34;;;;;;;7.23;2.63;;;19.50;99.90;;;20.31;100.00;97608.44;5060253;28;21027;-77
2022/06/20 05:56:15;;;;;;;4.97;2.50;;;19.40;99.90;;;20.32;100.00;97612.69;5063837;28;20488;-77
2022/06/20 05:58:48;;;;;;;5.00;2.87;;;19.40;99.90;;;20.33;100.00;97581.63;5064178;28;20452;-77
2022/06/20 06:01:24;;;;;;;6.60;2.90;;;19.40;99.90;;;20.36;100.00;97586.41;5065476;28;20892;-77
2022/06/20 06:04:06;;;;;;;7.53;2.47;;;19.40;99.90;;;20.36;100.00;97597.03;5063999;28;20476;-76
2022/06/20 06:06:46;;;;;;;11.53;3.20;;;19.40;99.90;;;20.39;100.00;97613.25;5062810;28;20467;-77
2022/06/20 06:09:25;;;;;;;7.00;3.33;;;19.40;99.90;;;20.38;100.00;97624.13;5063982;28;20543;-77
2022/06/20 06:12:02;;;;;;;5.80;2.63;;;19.50;99.90;;;20.36;100.00;97635.03;5065885;28;20444;-77
2022/06/20 06:14:41;;;;;;;4.67;2.87;;;19.50;99.90;;;20.40;100.00;97645.94;5063865;28;20466;-77
2022/06/20 06:17:20;;;;;;;7.10;2.90;;;19.40;99.90;;;20.41;100.00;97626.28;5062778;28;20499;-77
2022/06/20 06:20:18;;;;;;;5.80;2.73;;;19.50;99.90;;;20.36;100.00;97597.03;5063579;28;20448;-77
2022/06/20 06:22:53;;;;;;;6.97;2.63;;;19.40;99.90;;;20.37;100.00;97590.66;5062995;28;20526;-77
2022/06/20 06:25:34;;;;;;;12.33;2.80;;;19.40;99.90;;;20.37;100.00;97572.88;5061704;28;20432;-77
2022/06/20 06:28:16;;;;;;;6.77;3.27;;;19.40;99.90;;;20.39;100.00;97597.31;5063314;28;20453;-77
2022/06/20 06:30:54;;;;;;;9.30;3.53;;;19.50;99.90;;;20.37;100.00;97615.38;5064650;28;20510;-76
2022/06/20 06:33:31;;;;;;;9.20;3.30;;;19.50;99.90;;;20.36;100.00;97628.91;5064634;28;20499;-76
2022/06/20 06:36:08;;;;;;;5.10;3.03;;;19.60;99.90;;;20.36;100.00;97627.06;5065418;28;21031;-77
2022/06/20 06:38:42;;;;;;;10.60;3.27;;;19.50;99.90;;;20.41;100.00;97605.03;5066007;28;20510;-77
2022/06/20 06:41:24;;;;;;;5.43;2.97;;;19.40;99.90;;;20.44;100.00;97615.91;5065001;28;20459;-76
2022/06/20 06:43:59;;;;;;;8.27;2.97;;;19.50;99.90;;;20.48;100.00;97619.66;5064370;28;20902;-76
2022/06/20 06:46:36;;;;;;;6.03;3.40;;;19.50;99.90;;;20.49;100.00;97623.09;5063363;28;20443;-76
2022/06/20 06:49:29;;;;;;;6.60;3.10;;;19.50;99.90;;;20.44;100.00;97628.41;5063867;28;20945;-76
2022/06/20 06:52:09;;;;;;;6.30;2.80;;;19.60;99.90;;;20.49;100.00;97650.47;5063268;28;20866;-76
2022/06/20 06:54:57;;;;;;;12.17;3.10;;;19.60;99.90;;;20.54;100.00;97642.53;5060505;28;20491;-76
2022/06/20 06:57:37;;;;;;;14.10;3.00;;;19.60;99.90;;;20.57;100.00;97638.56;5064518;28;20992;-76
2022/06/20 07:00:30;;;;;;;7.00;2.23;;;19.60;99.90;;;20.63;100.00;97642.00;5063995;28;20996;-76
2022/06/20 07:03:09;;;;;;;5.63;2.80;;;19.70;99.90;;;20.65;100.00;97642.56;5064458;28;20499;-76
2022/06/20 07:05:46;;;;;;;4.03;2.87;;;19.80;99.90;;;20.68;100.00;97644.69;5065405;28;20452;-76
2022/06/20 07:08:44;;;;;;;6.97;2.87;;;19.80;99.90;;;20.73;100.00;97650.81;5064629;28;20475;-76
2022/06/20 07:11:22;;;;;;;5.60;3.37;;;19.70;99.90;;;20.75;100.00;97659.34;5065799;28;20448;-76
2022/06/20 07:14:02;;;;;;;7.43;3.80;;;19.80;99.90;;;20.79;100.00;97664.94;5063672;28;20440;-76
2022/06/20 07:16:43;;;;;;;8.33;2.60;;;19.70;99.90;;;20.83;100.00;97676.63;5064629;28;20521;-76
2022/06/20 07:19:15;;;;;;;7.97;3.00;;;19.80;99.90;;;20.81;100.00;97697.34;5063057;28;20981;-76
2022/06/20 07:21:46;;;;;;;4.97;2.73;;;19.80;99.90;;;20.84;100.00;97712.78;5064189;28;20468;-76
2022/06/20 07:24:21;;;;;;;5.87;2.87;;;19.90;99.90;;;20.78;100.00;97717.28;5064031;28;20598;-76
2022/06/20 07:26:58;;;;;;;5.80;3.00;;;19.90;99.90;;;20.77;100.00;97725.53;5064767;28;20437;-76
2022/06/20 07:29:36;;;;;;;8.30;3.30;;;19.90;99.90;;;20.80;100.00;97722.34;5063662;28;20455;-76
2022/06/20 07:32:13;;;;;;;5.83;2.47;;;20.00;99.90;;;20.86;100.00;97727.41;5066102;28;20967;-76
2022/06/20 07:34:51;;;;;;;8.13;3.00;;;20.00;99.90;;;20.96;100.00;97724.00;5068225;28;20455;-76
2022/06/20 07:37:26;;;;;;;15.70;3.50;;;20.00;99.90;;;20.87;100.00;97722.91;5067607;28;20487;-77
2022/06/20 07:40:06;;;;;;;9.30;2.77;;;20.10;99.90;;;20.98;100.00;97719.22;5069106;28;20874;-76
2022/06/20 07:42:45;;;;;;;5.90;2.80;;;20.10;99.90;;;21.05;100.00;97711.78;5067796;28;20902;-76
2022/06/20 07:45:24;;;;;;;5.80;3.03;;;20.20;99.90;;;21.15;100.00;97725.16;5068150;28;20452;-76
2022/06/20 07:47:59;;;;;;;4.20;2.70;;;20.30;99.90;;;21.27;100.00;97736.34;5067355;28;20472;-76
2022/06/20 07:50:37;;;;;;;7.40;2.90;;;20.40;99.90;;;21.31;100.00;97728.66;5067948;28;20937;-77
2022/06/20 07:53:13;;;;;;;10.37;2.97;;;20.60;99.90;;;21.38;100.00;97734.50;5065177;28;20474;-76
2022/06/20 07:56:00;;;;;;;7.17;2.47;;;20.60;99.90;;;21.38;100.00;97735.28;5066312;28;20480;-76
2022/06/20 07:58:34;;;;;;;7.57;2.77;;;20.60;99.90;;;21.34;100.00;97736.91;5068041;28;20526;-77
2022/06/20 08:01:15;;;;;;;5.40;2.93;;;20.60;99.90;;;21.37;100.00;97757.66;5066403;28;21068;-76
2022/06/20 08:03:56;;;;;;;4.90;2.80;;;20.50;99.90;;;21.33;100.00;97750.47;5068476;28;20495;-76
2022/06/20 08:06:32;;;;;;;7.33;3.30;;;20.60;99.90;;;21.32;100.00;97756.84;5068375;28;20461;-77
2022/06/20 08:09:09;;;;;;;4.20;2.53;;;20.60;99.90;;;21.29;100.00;97760.81;5067366;28;20460;-76
2022/06/20 08:11:51;;;;;;;5.87;3.40;;;20.70;99.90;;;21.27;100.00;97759.50;5065597;28;20468;-76
2022/06/20 08:14:38;;;;;;;6.17;1.97;;;20.60;99.90;;;21.29;100.00;97750.19;5067126;28;20449;-77
2022/06/20 08:17:12;;;;;;;5.10;2.20;;;20.50;99.90;;;21.12;100.00;97759.44;5065542;28;20495;-76
2022/06/20 08:19:46;;;;;;;4.87;2.30;;;20.40;99.90;;;21.11;100.00;97755.97;5067099;28;20481;-76
2022/06/20 08:22:23;;;;;;;5.70;2.70;;;20.50;99.90;;;21.14;100.00;97763.44;5066446;28;20431;-76
2022/06/20 08:24:58;;;;;;;4.97;2.40;;;20.40;99.90;;;21.14;100.00;97782.03;5066795;28;20476;-76
2022/06/20 08:27:51;;;;;;;6.40;3.00;;;20.30;99.90;;;21.09;100.00;97793.47;5065001;28;20458;-76
2022/06/20 08:30:39;;;;;;;4.33;2.70;;;20.40;99.90;;;21.05;100.00;97788.91;5061452;28;20464;-76
2022/06/20 08:33:22;;;;;;;5.17;2.10;;;20.40;99.90;;;21.10;100.00;97788.97;5065084;28;20455;-76
2022/06/20 08:36:02;;;;;;;2.60;2.23;;;20.40;99.90;;;21.09;100.00;97797.97;5066192;28;20459;-76
2022/06/20 08:38:39;;;;;;;2.93;2.23;;;20.40;99.90;;;21.11;100.00;97801.19;5066465;28;20989;-76
2022/06/20 08:42:03;;;;;;;5.27;2.17;;;20.40;99.90;;;21.08;100.00;97804.34;5064823;28;20449;-76
2022/06/20 08:45:19;;;;;;;3.07;2.10;;;20.50;99.90;;;21.05;100.00;97818.97;5065580;28;20542;-76
2022/06/20 08:48:40;;;;;;;4.53;2.30;;;20.40;99.90;;;21.05;100.00;97832.25;5034822;28;20485;-76
2022/06/20 08:52:20;;;;;;;3.43;2.30;;;20.40;99.90;;;20.97;100.00;97842.56;5066306;28;20441;-76
2022/06/20 08:55:45;;;;;;;2.80;2.33;;;20.30;99.90;;;20.82;100.00;97861.13;4986602;28;20569;-76
2022/06/20 08:58:31;;;;;;;2.80;2.43;;;20.20;99.90;;;20.71;100.00;97878.06;5060971;28;20472;-76
2022/06/20 09:01:14;;;;;;;6.60;2.40;;;20.10;99.90;;;20.64;100.00;97874.81;5062849;28;20463;-77
2022/06/20 09:04:26;;;;;;;2.47;2.03;;;20.00;99.90;;;20.57;100.00;97870.53;5066806;28;20562;-76
2022/06/20 09:07:44;;;;;;;3.20;2.40;;;20.00;99.90;;;20.63;100.00;97870.56;5065585;28;20464;-76
2022/06/20 09:10:48;;;;;;;2.50;2.10;;;19.90;99.90;;;20.58;100.00;97871.34;5064777;28;20455;-76
2022/06/20 09:13:57;;;;;;;2.73;2.07;;;19.80;99.90;;;20.53;100.00;97874.75;5063608;28;21771;-77
2022/06/20 09:16:47;;;;;;;2.43;1.90;;;19.90;99.90;;;20.50;100.00;97875.25;5065755;28;20547;-76
2022/06/20 09:20:02;;;;;;;2.17;1.90;;;19.80;99.90;;;20.49;100.00;97881.63;5064589;28;20465;-76
2022/06/20 09:23:12;;;;;;;2.83;1.97;;;19.70;99.90;;;20.52;100.00;97882.97;5052643;28;20534;-77
2022/06/20 09:25:56;;;;;;;2.00;1.60;;;19.70;99.90;;;20.50;100.00;97875.25;5063173;28;20491;-76
2022/06/20 09:29:33;;;;;;;2.50;1.97;;;19.70;99.90;;;20.51;100.00;97890.13;5065310;28;20943;-76
2022/06/20 09:33:07;;;;;;;1.90;1.60;;;19.60;99.90;;;20.49;100.00;97894.91;5063252;28;20555;-76
2022/06/20 09:36:48;;;;;;;3.53;1.73;;;19.70;99.90;;;20.34;100.00;97896.66;5030342;28;20467;-76
2022/06/20 09:39:34;;;;;;;1.67;1.40;;;19.70;99.90;;;20.35;100.00;97896.38;5065586;28;20456;-76
2022/06/20 09:42:22;;;;;;;3.80;1.80;;;19.60;99.90;;;20.30;100.00;97901.66;5066332;28;21010;-76
2022/06/20 09:45:09;;;;;;;2.33;1.30;;;19.50;99.90;;;20.24;100.00;97902.63;5065574;28;20575;-77
2022/06/20 09:47:55;;;;;;;2.60;1.73;;;19.40;99.90;;;20.18;100.00;97908.94;5066664;28;20527;-76
2022/06/20 09:50:45;;;;;;;1.77;1.50;;;19.30;99.90;;;19.97;100.00;97907.16;5061401;28;20459;-76
2022/06/20 09:53:40;;;;;;;2.43;1.80;;;19.20;99.90;;;19.76;100.00;97908.78;5062333;28;20513;-76
2022/06/20 09:56:19;;;;;;;1.87;1.47;;;18.80;99.90;;;19.62;100.00;97907.56;5059025;28;20456;-76
2022/06/20 09:59:04;;;;;;;2.00;1.80;;;18.70;99.90;;;19.65;100.00;97898.31;5065612;28;20440;-76
2022/06/20 10:01:40;;;;;;;3.00;2.10;;;18.60;99.90;;;19.52;100.00;97905.59;5064670;28;20450;-76
2022/06/20 10:04:24;;;;;;;2.30;1.90;;;18.60;99.90;;;19.42;100.00;97908.13;5064951;28;20585;-76
2022/06/20 10:07:27;;;;;;;2.40;2.07;;;18.40;99.90;;;19.41;100.00;97903.06;5064742;28;20464;-76
2022/06/20 10:10:06;;;;;;;2.50;1.50;;;18.40;99.90;;;19.31;100.00;97910.88;5065452;28;20525;-76
2022/06/20 10:12:49;;;;;;;3.37;1.90;;;18.40;99.90;;;19.37;100.00;97915.19;5065910;28;20475;-76
2022/06/20 10:15:39;;;;;;;3.67;1.93;;;18.50;99.90;;;19.37;100.00;97920.47;5065093;28;20464;-76
2022/06/20 10:18:31;;;;;;;8.00;2.03;;;18.50;99.90;;;19.28;100.00;97928.06;5064834;28;20491;-76
2022/06/20 10:21:14;;;;;;;2.17;1.70;;;18.40;99.90;;;19.33;100.00;97935.31;5064028;28;20464;-76
2022/06/20 10:24:31;;;;;;;3.17;2.47;;;18.40;99.90;;;19.30;100.00;97936.56;5064754;28;20543;-76
2022/06/20 10:27:36;;;;;;;2.77;2.10;;;18.30;99.90;;;19.30;100.00;97939.22;5064667;28;20529;-76
2022/06/20 10:30:13;;;;;;;9.03;2.27;;;18.40;99.90;;;19.28;100.00;97945.84;5065372;28;20886;-76
2022/06/20 10:32:57;;;;;;;5.13;2.60;;;18.30;99.90;;;19.24;100.00;97945.53;5063475;28;20878;-76
2022/06/20 10:35:45;;;;;;;6.23;2.60;;;18.30;99.90;;;19.19;100.00;97956.06;5063185;28;20514;-77
2022/06/20 10:38:40;;;;;;;3.50;2.37;;;18.30;99.90;;;19.16;100.00;97961.84;5062762;28;20464;-76
2022/06/20 10:41:21;;;;;;;5.43;2.70;;;18.30;99.90;;;19.21;100.00;97974.38;5066068;28;20456;-76
2022/06/20 10:44:03;;;;;;;3.10;2.43;;;18.40;99.90;;;19.27;100.00;97989.31;5062399;28;20471;-76
2022/06/20 10:46:43;;;;;;;4.60;3.20;;;18.40;99.90;;;19.20;100.00;97994.78;5064572;28;20959;-76
2022/06/20 10:49:56;;;;;;;4.87;3.43;;;18.30;99.90;;;19.12;100.00;98007.66;5064154;28;20460;-76
2022/06/20 10:52:55;;;;;;;10.60;3.27;;;18.20;99.90;;;19.14;100.00;98009.00;5063876;28;20499;-76
2022/06/20 10:55:41;;;;;;;4.10;3.30;;;18.20;99.90;;;19.16;100.00;98004.25;5065294;28;20494;-76
2022/06/20 10:58:56;;;;;;;6.23;4.50;;;18.20;99.90;;;19.07;100.00;98011.03;5063454;28;20467;-76
2022/06/20 11:01:41;;;;;;;7.53;4.70;;;18.20;99.90;;;19.12;100.00;98010.31;5064431;28;20454;-76
2022/06/20 11:04:53;;;;;;;6.17;4.03;;;18.10;99.90;;;19.14;100.00;98009.00;5063163;28;20466;-76
2022/06/20 11:07:39;;;;;;;5.23;3.53;;;18.20;99.90;;;19.18;100.00;98017.28;5067311;28;20967;-76
2022/06/20 11:10:32;;;;;;;4.30;3.00;;;18.30;99.90;;;19.20;100.00;98023.94;5068217;28;20456;-76
2022/06/20 11:13:17;;;;;;;5.50;3.80;;;18.30;99.90;;;19.22;100.00;98031.66;5068305;28;20555;-76
2022/06/20 11:15:58;;;;;;;9.20;3.40;;;18.40;99.90;;;19.20;100.00;98023.13;5068673;28;21446;-76
2022/06/20 11:19:00;;;;;;;5.17;4.50;;;18.30;99.90;;;19.15;100.00;98015.13;5066762;28;20460;-76
2022/06/20 11:21:46;;;;;;;6.87;4.50;;;18.30;99.90;;;19.07;100.00;98013.69;5062757;28;20915;-76